Time;durP1;ratioP1;P1;durP2;ratioP2;P2;SDS_P1;SDS_P2;PMS_P1;PMS_P2;Temp;Humidity;BMP_temperature;BMP_pressure;BME280_temperature;BME280_humidity;BME280_pressure;Samples;Min_cycle;Max_cycle;Signal;HPM_P1;HPM_P2
2023/03/30 00:01:20;;;;;;;4.38;3.70;;;10.40;99.90;;;;;;6131412;23;20155;-77
2023/03/30 00:03:47;;;;;;;4.63;2.97;;;10.20;99.90;;;;;;6131370;23;20164;-77
2023/03/30 00:06:20;;;;;;;5.95;3.47;;;10.10;99.90;;;;;;6157463;23;20175;-78
2023/03/30 00:08:47;;;;;;;4.70;3.50;;;10.00;99.90;;;;;;6137423;23;20167;-78
2023/03/30 00:11:16;;;;;;;5.22;3.67;;;10.00;99.90;;;;;;6138061;23;20164;-78
2023/03/30 00:13:42;;;;;;;5.97;3.80;;;9.90;99.90;;;;;;6138126;23;20210;-78
2023/03/30 00:16:11;;;;;;;6.30;3.40;;;9.90;99.90;;;;;;6137199;23;20182;-78
2023/03/30 00:18:38;;;;;;;5.28;3.88;;;9.90;99.90;;;;;;6137785;23;20175;-78
2023/03/30 00:21:05;;;;;;;7.10;3.97;;;9.80;99.90;;;;;;6138554;23;20182;-78
2023/03/30 00:23:31;;;;;;;6.00;3.63;;;9.80;99.90;;;;;;6138747;23;20163;-78
2023/03/30 00:25:57;;;;;;;4.20;3.80;;;9.80;99.90;;;;;;6138317;23;20233;-78
2023/03/30 00:28:24;;;;;;;5.10;3.40;;;9.80;99.90;;;;;;6138543;23;20164;-78
2023/03/30 00:30:52;;;;;;;8.52;4.00;;;9.80;99.90;;;;;;6138368;23;20156;-78
2023/03/30 00:33:18;;;;;;;6.90;4.30;;;9.70;99.90;;;;;;6138973;23;20156;-78
2023/03/30 00:35:54;;;;;;;5.70;3.88;;;9.70;99.90;;;;;;6135323;23;20187;-78
2023/03/30 00:38:20;;;;;;;6.63;3.60;;;9.70;99.90;;;;;;6132799;23;20152;-78
2023/03/30 00:40:57;;;;;;;5.78;3.50;;;9.70;99.90;;;;;;6133788;23;20167;-78
2023/03/30 00:43:25;;;;;;;8.50;4.18;;;9.60;99.90;;;;;;6133399;23;20163;-78
2023/03/30 00:45:50;;;;;;;4.50;3.55;;;9.60;99.90;;;;;;6160079;23;20167;-78
2023/03/30 00:48:28;;;;;;;5.80;3.80;;;9.60;99.90;;;;;;6133802;23;20163;-78
2023/03/30 00:51:01;;;;;;;4.00;3.40;;;9.60;99.90;;;;;;6132660;23;20159;-77
2023/03/30 00:53:32;;;;;;;5.43;3.92;;;9.60;99.90;;;;;;6157284;23;20497;-77
2023/03/30 00:55:59;;;;;;;3.75;3.38;;;9.70;99.90;;;;;;6131040;23;20188;-77
2023/03/30 00:58:26;;;;;;;5.22;3.65;;;9.60;99.90;;;;;;6130906;23;20222;-77
2023/03/30 01:27:00;;;;;;;6.47;2.90;;;9.40;99.90;;;;;;6175190;23;20210;-92
2023/03/30 01:30:03;;;;;;;4.03;3.00;;;9.40;99.90;;;;;;6164981;23;20667;-92
2023/03/30 01:32:54;;;;;;;3.72;3.20;;;9.40;99.90;;;;;;6104819;23;20161;-93
2023/03/30 01:35:20;;;;;;;3.67;3.05;;;9.30;99.90;;;;;;6159403;23;20222;-93
2023/03/30 01:38:07;;;;;;;4.18;3.15;;;9.30;99.90;;;;;;6162109;23;20163;-92
2023/03/30 01:40:41;;;;;;;3.72;2.90;;;9.20;99.90;;;;;;6163325;23;20499;-92
2023/03/30 01:43:19;;;;;;;5.25;3.28;;;9.20;99.90;;;;;;6190266;23;20146;-93
2023/03/30 01:45:56;;;;;;;4.60;3.30;;;9.20;99.90;;;;;;6163152;23;20205;-93
2023/03/30 01:49:06;;;;;;;5.38;3.45;;;9.20;99.90;;;;;;6160436;23;20161;-93
2023/03/30 01:51:38;;;;;;;5.93;4.28;;;9.10;99.90;;;;;;6070154;23;20200;-92
2023/03/30 01:54:16;;;;;;;4.90;4.30;;;9.00;99.90;;;;;;6070773;23;20208;-92
2023/03/30 01:56:53;;;;;;;8.27;3.65;;;9.00;99.90;;;;;;6126678;23;20175;-93
2023/03/30 01:59:27;;;;;;;4.78;3.55;;;8.80;99.90;;;;;;6160823;23;20143;-93
2023/03/30 02:01:59;;;;;;;6.65;4.07;;;8.80;99.90;;;;;;6160799;23;20231;-93
2023/03/30 02:04:26;;;;;;;4.10;3.25;;;8.70;99.90;;;;;;6163685;23;20198;-93
2023/03/30 02:07:05;;;;;;;5.97;3.50;;;8.70;99.90;;;;;;6163403;23;20185;-92
2023/03/30 02:09:32;;;;;;;3.67;3.17;;;8.60;99.90;;;;;;6164063;23;20155;-92
2023/03/30 02:11:59;;;;;;;5.10;3.30;;;8.60;99.90;;;;;;6162201;23;20159;-92
2023/03/30 02:14:29;;;;;;;3.97;3.35;;;8.60;99.90;;;;;;6162179;23;20190;-92
2023/03/30 02:17:05;;;;;;;6.85;3.47;;;8.50;99.90;;;;;;6162642;23;20182;-92
2023/03/30 02:19:32;;;;;;;5.20;3.58;;;8.40;99.90;;;;;;6163254;23;20153;-93
2023/03/30 02:22:00;;;;;;;7.15;3.40;;;8.30;99.90;;;;;;6162566;23;20158;-93
2023/03/30 02:24:30;;;;;;;4.38;3.25;;;8.10;99.90;;;;;;6189360;23;20173;-92
2023/03/30 02:26:59;;;;;;;3.95;3.53;;;8.10;99.90;;;;;;6163204;23;20195;-92
2023/03/30 02:29:25;;;;;;;5.78;3.55;;;8.00;99.90;;;;;;6163193;23;20171;-93
2023/03/30 02:31:54;;;;;;;6.35;5.47;;;7.90;99.90;;;;;;6163896;23;20554;-92
2023/03/30 02:35:11;;;;;;;6.25;4.40;;;7.80;99.90;;;;;;6162303;23;20194;-92
2023/03/30 02:38:00;;;;;;;12.48;8.93;;;7.80;99.90;;;;;;6135373;23;20254;-92
2023/03/30 02:40:50;;;;;;;6.95;4.93;;;7.80;99.90;;;;;;6120695;23;20159;-92
2023/03/30 02:43:26;;;;;;;6.60;4.95;;;8.00;99.90;;;;;;6163921;23;20154;-92
2023/03/30 02:46:01;;;;;;;7.72;5.35;;;8.10;99.90;;;;;;6163041;23;20265;-93
2023/03/30 02:48:41;;;;;;;5.55;4.90;;;8.20;99.90;;;;;;6162693;23;20228;-92
2023/03/30 02:51:15;;;;;;;8.43;6.32;;;8.20;99.90;;;;;;6163502;23;20147;-92
2023/03/30 02:53:55;;;;;;;5.55;4.60;;;8.20;99.90;;;;;;6162501;23;20147;-92
2023/03/30 02:56:24;;;;;;;5.95;4.25;;;8.20;99.90;;;;;;6162921;23;20178;-92
2023/03/30 02:58:59;;;;;;;4.43;3.53;;;8.30;99.90;;;;;;6162571;23;20155;-92
2023/03/30 03:01:51;;;;;;;3.58;3.08;;;8.40;99.90;;;;;;6163551;23;20142;-92
2023/03/30 03:04:20;;;;;;;5.38;3.30;;;8.30;99.90;;;;;;6188486;23;20151;-92
2023/03/30 03:06:47;;;;;;;5.38;2.88;;;8.20;99.90;;;;;;6161578;23;20183;-92
2023/03/30 03:09:14;;;;;;;6.15;3.35;;;8.20;99.90;;;;;;6162309;23;20159;-93
2023/03/30 03:11:39;;;;;;;5.47;3.60;;;8.10;99.90;;;;;;6188150;23;20154;-93
2023/03/30 03:14:06;;;;;;;5.13;3.47;;;8.10;99.90;;;;;;6162383;23;20229;-93
2023/03/30 03:16:32;;;;;;;4.53;3.70;;;8.20;99.90;;;;;;6161235;23;20229;-92
2023/03/30 03:18:57;;;;;;;6.90;3.90;;;8.30;99.90;;;;;;6159680;23;20159;-93
2023/03/30 03:21:23;;;;;;;4.93;3.88;;;8.30;99.90;;;;;;6159869;23;20237;-93
2023/03/30 03:23:49;;;;;;;7.88;3.75;;;8.50;99.90;;;;;;6159711;23;20162;-93
2023/03/30 03:26:14;;;;;;;6.05;3.78;;;8.50;99.90;;;;;;6158773;23;20341;-93
2023/03/30 03:28:40;;;;;;;4.35;3.83;;;8.60;99.90;;;;;;6159776;23;20185;-93
2023/03/30 03:31:06;;;;;;;5.80;4.43;;;8.70;99.90;;;;;;6186466;23;20159;-92
2023/03/30 03:33:31;;;;;;;6.88;4.93;;;8.70;99.90;;;;;;6161591;23;20155;-93
2023/03/30 03:35:59;;;;;;;6.95;4.97;;;8.70;99.90;;;;;;6161403;23;20182;-92
2023/03/30 03:38:25;;;;;;;3.95;3.55;;;8.60;99.90;;;;;;6161360;23;20155;-93
2023/03/30 03:40:53;;;;;;;4.25;3.75;;;8.60;99.90;;;;;;6162000;23;20254;-93
2023/03/30 03:43:20;;;;;;;4.47;4.10;;;8.60;99.90;;;;;;6161639;23;20155;-93
2023/03/30 03:45:46;;;;;;;6.20;4.50;;;8.60;99.90;;;;;;6161213;23;20189;-93
2023/03/30 03:48:16;;;;;;;6.93;3.92;;;8.50;99.90;;;;;;6162464;23;20158;-93
2023/03/30 03:50:52;;;;;;;8.02;4.45;;;8.60;99.90;;;;;;6163837;23;20156;-92
2023/03/30 03:53:18;;;;;;;5.03;3.97;;;8.60;99.90;;;;;;6164067;23;20151;-93
2023/03/30 03:55:45;;;;;;;4.78;4.28;;;8.50;99.90;;;;;;6163448;23;20190;-92
2023/03/30 03:58:13;;;;;;;4.80;4.00;;;8.50;99.90;;;;;;6164388;23;20262;-92
2023/03/30 04:00:39;;;;;;;7.88;4.88;;;8.60;99.90;;;;;;6162874;23;20161;-92
2023/03/30 04:03:06;;;;;;;9.85;6.93;;;8.60;99.90;;;;;;6189954;23;20190;-93
2023/03/30 04:05:32;;;;;;;7.45;5.38;;;8.60;99.90;;;;;;6163490;23;20291;-92
2023/03/30 04:08:01;;;;;;;8.02;6.03;;;8.70;99.90;;;;;;6164202;23;20162;-92
2023/03/30 04:10:27;;;;;;;9.80;6.60;;;8.70;99.90;;;;;;6190249;23;20155;-92
2023/03/30 04:12:57;;;;;;;9.52;7.03;;;8.70;99.90;;;;;;6163490;23;20159;-92
2023/03/30 04:15:24;;;;;;;12.00;8.32;;;8.70;99.90;;;;;;6164598;23;20186;-93
2023/03/30 04:17:56;;;;;;;22.23;14.75;;;8.70;99.90;;;;;;6164841;23;20189;-92
2023/03/30 04:20:25;;;;;;;11.93;8.88;;;8.70;99.90;;;;;;6165061;23;20150;-92
2023/03/30 04:22:52;;;;;;;11.52;7.85;;;8.60;99.90;;;;;;6163610;23;20155;-92
2023/03/30 04:25:24;;;;;;;8.02;4.88;;;8.60;99.90;;;;;;6167150;23;20166;-93
2023/03/30 04:27:51;;;;;;;4.20;3.70;;;8.60;99.90;;;;;;6168421;23;20228;-93
2023/03/30 04:30:18;;;;;;;7.47;4.30;;;8.60;99.90;;;;;;6171246;23;20173;-93
2023/03/30 04:32:45;;;;;;;5.05;3.83;;;8.50;99.90;;;;;;6192182;23;20162;-92
2023/03/30 04:35:13;;;;;;;5.03;3.92;;;8.60;99.90;;;;;;6165171;23;20179;-92
2023/03/30 04:37:40;;;;;;;4.38;3.90;;;8.60;99.90;;;;;;6168149;23;20165;-93
2023/03/30 04:40:11;;;;;;;8.07;4.82;;;8.70;99.90;;;;;;6166073;23;20159;-93
2023/03/30 04:42:38;;;;;;;8.32;4.57;;;8.80;99.90;;;;;;6168177;23;20238;-93
2023/03/30 04:45:07;;;;;;;7.90;4.53;;;8.80;99.90;;;;;;6170376;23;20150;-93
2023/03/30 06:06:44;;;;;;;9.07;4.50;;;9.60;99.90;;;;;;6174399;23;20595;-92
2023/03/30 06:09:10;;;;;;;8.45;4.38;;;9.70;99.90;;;;;;6164988;23;20162;-92
2023/03/30 06:11:36;;;;;;;9.75;5.38;;;9.80;99.90;;;;;;6168056;23;20163;-92
2023/03/30 06:14:01;;;;;;;8.80;5.47;;;9.80;99.90;;;;;;6172271;23;20189;-92
2023/03/30 06:16:27;;;;;;;10.57;6.63;;;9.80;99.90;;;;;;6167027;23;20174;-92
2023/03/30 06:18:53;;;;;;;8.32;6.25;;;9.70;99.90;;;;;;6166149;23;20159;-92
2023/03/30 06:21:27;;;;;;;11.05;7.20;;;9.60;99.90;;;;;;6164559;23;20556;-93
2023/03/30 06:24:07;;;;;;;9.77;8.05;;;9.60;99.90;;;;;;6173765;23;20162;-91
2023/03/30 06:27:02;;;;;;;9.13;6.15;;;9.50;99.90;;;;;;6161012;23;20179;-92
2023/03/30 06:29:33;;;;;;;13.50;6.22;;;9.40;99.90;;;;;;6161372;23;20158;-92
2023/03/30 06:32:02;;;;;;;12.05;6.53;;;9.40;99.90;;;;;;6162178;23;20162;-92
2023/03/30 06:34:32;;;;;;;9.65;6.20;;;9.40;99.90;;;;;;6163672;23;20190;-92
2023/03/30 06:37:00;;;;;;;12.10;7.05;;;9.40;99.90;;;;;;6173342;23;20255;-92
2023/03/30 06:40:06;;;;;;;10.32;7.00;;;9.40;99.90;;;;;;6161753;23;20158;-92
2023/03/30 06:42:32;;;;;;;7.70;6.25;;;9.40;99.90;;;;;;6162258;23;20159;-91
2023/03/30 06:44:57;;;;;;;10.95;6.93;;;9.50;99.90;;;;;;6163031;23;20529;-91
2023/03/30 06:47:24;;;;;;;62.33;40.22;;;9.40;99.90;;;;;;6167914;23;20159;-95
2023/03/30 06:49:49;;;;;;;56.40;35.05;;;9.60;99.90;;;;;;6177603;23;20245;-93
2023/03/30 06:52:16;;;;;;;43.53;28.27;;;9.70;99.90;;;;;;6174528;23;20185;-92
2023/03/30 06:54:44;;;;;;;36.78;22.88;;;9.50;99.90;;;;;;6174788;23;20189;-92
2023/03/30 06:57:10;;;;;;;31.17;19.83;;;9.40;99.90;;;;;;6185770;23;20162;-93
2023/03/30 06:59:36;;;;;;;27.75;18.45;;;9.50;99.90;;;;;;6186697;23;20171;-95
2023/03/30 07:04:37;;;;;;;11.15;7.55;;;9.50;99.90;;;;;;6195974;23;20206;-94
2023/03/30 07:07:03;;;;;;;11.10;7.97;;;9.40;99.90;;;;;;6182096;23;20190;-92
2023/03/30 07:09:29;;;;;;;12.18;7.07;;;9.40;99.90;;;;;;6179680;23;20166;-92
2023/03/30 07:11:54;;;;;;;11.48;6.50;;;9.40;99.90;;;;;;6183445;23;20181;-94
2023/03/30 07:14:20;;;;;;;11.68;6.32;;;9.30;99.90;;;;;;6186067;23;20259;-94
2023/03/30 07:16:47;;;;;;;11.73;6.85;;;9.30;99.90;;;;;;6185566;23;20183;-94
2023/03/30 07:19:13;;;;;;;19.02;6.68;;;9.30;99.90;;;;;;6184868;23;20135;-93
2023/03/30 07:21:39;;;;;;;12.48;6.13;;;9.40;99.90;;;;;;6186715;23;20150;-94
2023/03/30 07:24:06;;;;;;;9.00;6.07;;;9.40;99.90;;;;;;6185845;23;20155;-93
2023/03/30 07:26:32;;;;;;;11.98;6.10;;;9.40;99.90;;;;;;6187816;23;20167;-94
2023/03/30 07:28:58;;;;;;;13.38;5.82;;;9.40;99.90;;;;;;6189137;23;20159;-94
2023/03/30 07:31:24;;;;;;;9.43;6.30;;;9.40;99.90;;;;;;6189206;23;20151;-95
2023/03/30 07:33:50;;;;;;;12.90;6.93;;;9.40;99.90;;;;;;6189687;23;20151;-94
2023/03/30 08:02:13;;;;;;;10.05;6.72;;;9.60;99.90;;;;;;6185221;23;20194;-96
2023/03/30 08:04:40;;;;;;;10.80;7.40;;;9.60;99.90;;;;;;6191878;23;20147;-96
2023/03/30 08:07:06;;;;;;;13.73;6.95;;;9.70;99.90;;;;;;6191915;23;20187;-96
2023/03/30 08:09:32;;;;;;;11.43;6.85;;;9.70;99.90;;;;;;6191924;23;20138;-96
2023/03/30 08:11:58;;;;;;;10.25;7.53;;;9.80;99.90;;;;;;6191883;23;20183;-96
2023/03/30 08:14:51;;;;;;;15.68;9.27;;;9.90;99.90;;;;;;6191841;23;20170;-96
2023/03/30 08:17:18;;;;;;;14.65;7.63;;;9.90;99.90;;;;;;6191097;23;20128;-95
2023/03/30 08:19:48;;;;;;;12.90;8.75;;;10.10;99.90;;;;;;6210822;23;20174;-94
2023/03/30 08:22:14;;;;;;;20.05;12.98;;;10.10;99.90;;;;;;6179331;23;20202;-94
2023/03/30 08:24:40;;;;;;;17.60;11.65;;;10.20;99.90;;;;;;6178529;23;20159;-94
2023/03/30 08:27:06;;;;;;;16.85;10.55;;;10.40;99.90;;;;;;6183576;23;20175;-94
2023/03/30 08:29:32;;;;;;;18.55;9.20;;;10.50;99.90;;;;;;6184443;23;20215;-94
2023/03/30 08:31:58;;;;;;;15.45;7.43;;;10.60;99.90;;;;;;6182881;23;20179;-94
2023/03/30 08:34:23;;;;;;;14.10;6.80;;;10.70;99.90;;;;;;6183540;23;20194;-94
2023/03/30 08:36:49;;;;;;;15.48;5.78;;;10.70;99.90;;;;;;6184597;23;20179;-94
2023/03/30 08:39:15;;;;;;;14.25;5.30;;;10.80;99.90;;;;;;6183398;23;20182;-94
2023/03/30 08:41:50;;;;;;;12.40;5.38;;;11.00;99.90;;;;;;6182403;23;20250;-94
2023/03/30 08:44:56;;;;;;;12.07;4.85;;;11.20;99.90;;;;;;6177165;23;20151;-95
